createdAt,value
2017-12-05T00:00:46.535Z,94.18
2017-12-05T00:01:46.547Z,94.18
2017-12-05T00:02:46.559Z,93.61
2017-12-05T00:03:46.571Z,93.51
2017-12-05T00:04:46.584Z,93.51
2017-12-05T00:05:46.595Z,93.32
2017-12-05T00:06:46.359Z,93.51
2017-12-05T00:07:46.623Z,93.89
2017-12-05T00:08:46.637Z,93.32
2017-12-05T00:09:46.650Z,93.23
2017-12-05T00:10:46.412Z,93.42
2017-12-05T00:11:46.677Z,93.61
2017-12-05T00:12:46.435Z,93.89
2017-12-05T00:13:46.699Z,93.99
2017-12-05T00:14:46.462Z,93.7
2017-12-05T00:15:46.732Z,93.89
2017-12-05T00:16:46.738Z,93.99
2017-12-05T00:17:46.499Z,94.27
2017-12-05T00:18:46.774Z,93.99
2017-12-05T00:19:46.779Z,94.08
2017-12-05T00:20:46.788Z,94.18
2017-12-05T00:21:46.808Z,93.23
2017-12-05T00:22:46.815Z,93.89
2017-12-05T00:23:46.827Z,93.61
2017-12-05T00:24:46.841Z,93.7
2017-12-05T00:25:46.600Z,93.42
2017-12-05T00:26:46.868Z,93.04
2017-12-05T00:27:46.878Z,93.23
2017-12-05T00:28:46.642Z,93.04
2017-12-05T00:29:46.904Z,93.8
2017-12-05T00:30:46.919Z,93.61
2017-12-05T00:31:46.931Z,93.61
2017-12-05T00:32:46.943Z,93.32
2017-12-05T00:33:46.959Z,93.51
2017-12-05T00:34:46.980Z,93.61
2017-12-05T00:35:46.980Z,93.7
2017-12-05T00:36:46.998Z,93.32
2017-12-05T00:37:47.009Z,93.7
2017-12-05T00:38:47.021Z,93.61
2017-12-05T00:39:47.031Z,93.04
2017-12-05T00:40:47.045Z,93.13
2017-12-05T00:41:47.060Z,93.51
2017-12-05T00:42:46.820Z,93.89
2017-12-05T00:43:47.083Z,93.8
2017-12-05T00:44:47.096Z,93.99
2017-12-05T00:45:47.111Z,93.7
2017-12-05T00:46:46.869Z,93.99
2017-12-05T00:47:47.133Z,93.42
2017-12-05T00:48:47.148Z,93.51
2017-12-05T00:49:46.910Z,93.51
2017-12-05T00:50:47.176Z,93.7
2017-12-05T00:51:47.216Z,93.51
2017-12-05T00:52:46.946Z,93.61
2017-12-05T00:53:47.212Z,93.99
2017-12-05T00:54:47.222Z,93.8
2017-12-05T00:55:47.237Z,93.61
2017-12-05T00:56:47.249Z,93.13
2017-12-05T00:57:47.262Z,93.51
2017-12-05T00:58:47.281Z,93.42
2017-12-05T00:59:47.039Z,93.61
2017-12-05T01:00:47.046Z,93.99
2017-12-05T01:01:47.312Z,93.61
2017-12-05T01:02:47.074Z,94.08
2017-12-05T01:03:47.089Z,94.18
2017-12-05T01:04:47.352Z,94.46
2017-12-05T01:05:47.368Z,94.56
2017-12-05T01:06:47.381Z,94.93
2017-12-05T01:07:47.394Z,95.12
2017-12-05T01:08:47.405Z,95.03
2017-12-05T01:09:47.162Z,95.31
2017-12-05T01:10:47.427Z,95.03
2017-12-05T01:11:47.439Z,95.22
2017-12-05T01:12:47.199Z,95.22
2017-12-05T01:13:47.464Z,95.03
2017-12-05T01:14:47.479Z,95.22
2017-12-05T01:15:47.241Z,95.22
2017-12-05T01:16:47.250Z,94.89
2017-12-05T01:17:47.284Z,95.45
2017-12-05T01:18:47.276Z,96.02
2017-12-05T01:19:47.539Z,95.83
2017-12-05T01:20:47.554Z,96.02
2017-12-05T01:21:47.567Z,96.07
2017-12-05T01:22:47.580Z,95.83
2017-12-05T01:23:47.591Z,95.45
2017-12-05T01:24:47.605Z,95.07
2017-12-05T01:25:47.616Z,95.26
2017-12-05T01:26:47.628Z,95.22
2017-12-05T01:27:47.840Z,95.26
2017-12-05T01:28:47.652Z,95.31
2017-12-05T01:29:47.663Z,95.41
2017-12-05T01:30:47.689Z,95.22
2017-12-05T01:31:47.689Z,95.45
2017-12-05T01:32:47.704Z,95.22
2017-12-05T01:33:47.463Z,95.31
2017-12-05T01:34:47.730Z,94.93
2017-12-05T01:35:47.489Z,95.26
2017-12-05T01:36:47.753Z,95.45
2017-12-05T01:37:47.765Z,95.12
2017-12-05T01:38:47.778Z,95.07
2017-12-05T01:39:47.792Z,96.21
2017-12-05T01:40:47.805Z,95.83
2017-12-05T01:41:47.834Z,96.02
2017-12-05T01:42:47.577Z,96.02
2017-12-05T01:43:47.843Z,96.02
2017-12-05T01:44:47.860Z,95.74
2017-12-05T01:45:47.867Z,95.83
2017-12-05T01:46:47.881Z,95.64
2017-12-05T01:47:47.639Z,95.93
2017-12-05T01:48:47.654Z,96.02
2017-12-05T01:49:47.665Z,95.74
2017-12-05T01:50:47.934Z,95.45
2017-12-05T01:51:47.941Z,95.45
2017-12-05T01:52:47.956Z,95.93
2017-12-05T01:53:47.967Z,95.93
2017-12-05T01:54:47.728Z,95.83
2017-12-05T01:55:47.994Z,96.02
2017-12-05T01:56:48.055Z,95.93
2017-12-05T01:57:47.767Z,96.07
2017-12-05T01:58:47.779Z,95.26
2017-12-05T01:59:47.790Z,95.64
2017-12-05T02:00:48.056Z,95.64
2017-12-05T02:01:48.070Z,95.93
2017-12-05T02:02:48.080Z,96.02
2017-12-05T02:03:48.093Z,95.93
2017-12-05T02:04:47.854Z,95.55
2017-12-05T02:05:48.118Z,95.83
2017-12-05T02:06:48.131Z,95.98
2017-12-05T02:07:48.154Z,95.64
2017-12-05T02:08:48.157Z,95.45
2017-12-05T02:09:47.915Z,95.74
2017-12-05T02:10:47.928Z,95.74
2017-12-05T02:11:47.990Z,95.93
2017-12-05T02:12:48.206Z,95.93
2017-12-05T02:13:48.224Z,95.36
2017-12-05T02:14:48.234Z,95.64
2017-12-05T02:15:48.242Z,96.12
2017-12-05T02:16:48.102Z,95.93
2017-12-05T02:17:48.270Z,95.64
2017-12-05T02:18:48.282Z,95.64
2017-12-05T02:19:48.296Z,95.45
2017-12-05T02:20:48.307Z,95.93
2017-12-05T02:21:48.320Z,96.12
2017-12-05T02:22:48.330Z,96.02
2017-12-05T02:23:48.345Z,95.55
2017-12-05T02:24:48.354Z,95.83
2017-12-05T02:25:48.116Z,95.93
2017-12-05T02:26:48.178Z,95.83
2017-12-05T02:27:48.141Z,96.78
2017-12-05T02:28:48.409Z,96.78
2017-12-05T02:29:48.416Z,96.88
2017-12-05T02:30:48.431Z,96.78
2017-12-05T02:31:48.452Z,96.5
2017-12-05T02:32:48.454Z,96.69
2017-12-05T02:33:48.214Z,96.97
2017-12-05T02:34:48.479Z,97.25
2017-12-05T02:35:48.242Z,97.35
2017-12-05T02:36:48.506Z,97.44
2017-12-05T02:37:48.266Z,96.78
2017-12-05T02:38:48.531Z,96.69
2017-12-05T02:39:48.542Z,96.78
2017-12-05T02:40:48.561Z,96.4
2017-12-05T02:41:48.365Z,96.69
2017-12-05T02:42:48.325Z,96.59
2017-12-05T02:43:48.591Z,96.78
2017-12-05T02:44:48.353Z,96.59
2017-12-05T02:45:48.623Z,95.83
2017-12-05T02:46:48.627Z,95.83
2017-12-05T02:47:48.641Z,95.83
2017-12-05T02:48:48.651Z,95.83
2017-12-05T02:49:48.412Z,95.93
2017-12-05T02:50:48.728Z,95.93
2017-12-05T02:51:48.689Z,95.74
2017-12-05T02:52:48.704Z,95.93
2017-12-05T02:53:48.461Z,96.12
2017-12-05T02:54:48.474Z,96.21
2017-12-05T02:55:48.738Z,95.55
2017-12-05T02:56:48.802Z,95.83
2017-12-05T02:57:48.771Z,95.74
2017-12-05T02:58:48.773Z,95.64
2017-12-05T02:59:48.789Z,95.74
2017-12-05T03:00:48.799Z,95.64
2017-12-05T03:01:48.816Z,96.02
2017-12-05T03:02:48.828Z,95.74
2017-12-05T03:03:48.840Z,95.36
2017-12-05T03:04:48.851Z,95.22
2017-12-05T03:05:48.909Z,95.45
2017-12-05T03:06:48.876Z,95.26
2017-12-05T03:07:48.635Z,95.64
2017-12-05T03:08:48.906Z,95.07
2017-12-05T03:09:48.662Z,95.07
2017-12-05T03:10:48.674Z,95.26
2017-12-05T03:11:48.989Z,96.12
2017-12-05T03:12:48.700Z,94.98
2017-12-05T03:13:48.962Z,95.03
2017-12-05T03:14:48.974Z,95.5
2017-12-05T03:15:48.985Z,95.03
2017-12-05T03:16:48.999Z,94.89
2017-12-05T03:17:49.013Z,95.07
2017-12-05T03:18:49.026Z,94.51
2017-12-05T03:19:48.791Z,94.42
2017-12-05T03:20:49.055Z,94.51
2017-12-05T03:21:49.072Z,94.46
2017-12-05T03:22:49.077Z,94.51
2017-12-05T03:23:48.837Z,94.6
2017-12-05T03:24:49.104Z,94.79
2017-12-05T03:25:49.114Z,94.65
2017-12-05T03:26:49.176Z,94.37
2017-12-05T03:27:48.886Z,93.61
2017-12-05T03:28:49.156Z,94.65
2017-12-05T03:29:49.164Z,94.46
2017-12-05T03:30:49.186Z,93.8
2017-12-05T03:31:49.189Z,94.08
2017-12-05T03:32:49.206Z,93.7
2017-12-05T03:33:48.963Z,94.74
2017-12-05T03:34:49.228Z,93.99
2017-12-05T03:35:49.241Z,94.74
2017-12-05T03:36:49.254Z,94.18
2017-12-05T03:37:49.264Z,93.99
2017-12-05T03:38:49.277Z,94.18
2017-12-05T03:39:49.294Z,94.27
2017-12-05T03:40:49.331Z,93.99
2017-12-05T03:41:49.364Z,93.89
2017-12-05T03:42:49.331Z,94.18
2017-12-05T03:43:49.343Z,94.08
2017-12-05T03:44:49.354Z,93.7
2017-12-05T03:45:49.367Z,93.32
2017-12-05T03:46:49.379Z,93.8
2017-12-05T03:47:49.394Z,93.8
2017-12-05T03:48:49.403Z,93.23
2017-12-05T03:49:49.419Z,93.51
2017-12-05T03:50:49.436Z,93.61
2017-12-05T03:51:49.442Z,93.61
2017-12-05T03:52:49.205Z,93.42
2017-12-05T03:53:49.468Z,93.13
2017-12-05T03:54:49.486Z,93.42
2017-12-05T03:55:49.252Z,93.61
2017-12-05T03:56:49.558Z,93.42
2017-12-05T03:57:49.520Z,93.61
2017-12-05T03:58:49.535Z,93.8
2017-12-05T03:59:49.548Z,93.51
2017-12-05T04:00:49.305Z,93.61
2017-12-05T04:01:49.573Z,94.27
2017-12-05T04:02:49.585Z,93.42
2017-12-05T04:03:49.595Z,93.61
2017-12-05T04:04:49.623Z,93.42
2017-12-05T04:05:49.622Z,93.42
2017-12-05T04:06:49.634Z,93.51
2017-12-05T04:07:49.646Z,93.23
2017-12-05T04:08:49.659Z,93.51
2017-12-05T04:09:49.672Z,93.7
2017-12-05T04:10:49.432Z,93.13
2017-12-05T04:11:49.849Z,93.04
2017-12-05T04:12:49.714Z,93.32
2017-12-05T04:13:49.473Z,93.32
2017-12-05T04:14:49.740Z,93.13
2017-12-05T04:15:49.750Z,93.42
2017-12-05T04:16:49.772Z,93.51
2017-12-05T04:17:49.775Z,93.23
2017-12-05T04:18:49.791Z,93.32
2017-12-05T04:19:49.550Z,93.04
2017-12-05T04:20:49.816Z,93.04
2017-12-05T04:21:49.578Z,93.04
2017-12-05T04:22:49.591Z,93.51
2017-12-05T04:23:49.623Z,93.42
2017-12-05T04:24:49.614Z,93.32
2017-12-05T04:25:49.882Z,93.13
2017-12-05T04:26:49.695Z,92.66
2017-12-05T04:27:49.907Z,92.76
2017-12-05T04:28:49.918Z,92.76
2017-12-05T04:29:49.932Z,92.66
2017-12-05T04:30:49.949Z,92.38
2017-12-05T04:31:49.961Z,92.38
2017-12-05T04:32:49.972Z,92.28
2017-12-05T04:33:49.989Z,92.09
2017-12-05T04:34:49.997Z,91.62
2017-12-05T04:35:50.009Z,92
2017-12-05T04:36:50.025Z,91.62
2017-12-05T04:37:50.034Z,92.19
2017-12-05T04:38:50.049Z,92.38
2017-12-05T04:39:50.067Z,92.28
2017-12-05T04:40:50.076Z,92.09
2017-12-05T04:41:50.140Z,92
2017-12-05T04:42:50.101Z,92.28
2017-12-05T04:43:50.112Z,91.81
2017-12-05T04:44:50.127Z,91.9
2017-12-05T04:45:49.888Z,91.9
2017-12-05T04:46:49.901Z,91.62
2017-12-05T04:47:50.177Z,91.52
2017-12-05T04:48:50.178Z,91.71
2017-12-05T04:49:50.191Z,91.81
2017-12-05T04:50:49.953Z,91.52
2017-12-05T04:51:49.965Z,91.24
2017-12-05T04:52:50.284Z,91.62
2017-12-05T04:53:50.245Z,91.33
2017-12-05T04:54:50.005Z,91.14
2017-12-05T04:55:50.273Z,91.52
2017-12-05T04:56:50.283Z,91.52
2017-12-05T04:57:50.297Z,91.52
2017-12-05T04:58:50.312Z,91.9
2017-12-05T04:59:50.325Z,91.24
2017-12-05T05:00:50.344Z,91.81
2017-12-05T05:01:50.351Z,91.52
2017-12-05T05:02:50.365Z,91.71
2017-12-05T05:03:50.123Z,91.62
2017-12-05T05:04:50.390Z,91.52
2017-12-05T05:05:50.403Z,91.71
2017-12-05T05:06:50.428Z,91.71
2017-12-05T05:07:50.427Z,91.81
2017-12-05T05:08:50.440Z,92
2017-12-05T05:09:50.200Z,91.33
2017-12-05T05:10:50.473Z,91.71
2017-12-05T05:11:50.482Z,91.33
2017-12-05T05:12:50.491Z,91.43
2017-12-05T05:13:50.506Z,91.71
2017-12-05T05:14:50.520Z,92.09
2017-12-05T05:15:50.534Z,91.62
2017-12-05T05:16:50.550Z,91.43
2017-12-05T05:17:50.559Z,91.24
2017-12-05T05:18:50.570Z,91.05
2017-12-05T05:19:50.585Z,91.43
2017-12-05T05:20:50.597Z,91.14
2017-12-05T05:21:50.609Z,91.05
2017-12-05T05:22:50.370Z,91.14
2017-12-05T05:23:50.635Z,90.86
2017-12-05T05:24:50.398Z,91.14
2017-12-05T05:25:50.666Z,90.95
2017-12-05T05:26:50.675Z,91.05
2017-12-05T05:27:50.687Z,90.86
2017-12-05T05:28:50.698Z,90.39
2017-12-05T05:29:50.714Z,90.77
2017-12-05T05:30:50.473Z,90.77
2017-12-05T05:31:50.739Z,90.95
2017-12-05T05:32:50.753Z,90.67
2017-12-05T05:33:50.767Z,90.95
2017-12-05T05:34:50.526Z,90.95
2017-12-05T05:35:50.794Z,91.14
2017-12-05T05:36:50.553Z,91.05
2017-12-05T05:37:50.566Z,91.24
2017-12-05T05:38:50.832Z,91.05
2017-12-05T05:39:50.852Z,91.05
2017-12-05T05:40:50.858Z,90.86
2017-12-05T05:41:50.870Z,90.95
2017-12-05T05:42:50.883Z,91.05
2017-12-05T05:43:50.898Z,91.24
2017-12-05T05:44:50.912Z,90.95
2017-12-05T05:45:50.923Z,91.24
2017-12-05T05:46:50.684Z,91.05
2017-12-05T05:47:50.954Z,90.95
2017-12-05T05:48:50.719Z,90.95
2017-12-05T05:49:50.982Z,91.43
2017-12-05T05:50:50.735Z,91.24
2017-12-05T05:51:50.750Z,91.14
2017-12-05T05:52:50.762Z,91.43
2017-12-05T05:53:51.028Z,91.33
2017-12-05T05:54:51.039Z,90.86
2017-12-05T05:55:51.055Z,91.05
2017-12-05T05:56:51.068Z,90.95
2017-12-05T05:57:51.133Z,91.14
2017-12-05T05:58:50.851Z,90.95
2017-12-05T05:59:51.108Z,90.95
2017-12-05T06:00:50.867Z,90.29
2017-12-05T06:01:51.192Z,90.39
2017-12-05T06:02:51.148Z,90.58
2017-12-05T06:03:51.161Z,90.67
2017-12-05T06:04:50.936Z,90.95
2017-12-05T06:05:51.184Z,91.05
2017-12-05T06:06:50.947Z,90.95
2017-12-05T06:07:51.211Z,91.14
2017-12-05T06:08:51.231Z,90.58
2017-12-05T06:09:50.987Z,91.05
2017-12-05T06:10:51.252Z,90.39
2017-12-05T06:11:51.013Z,90.29
2017-12-05T06:12:51.330Z,90.2
2017-12-05T06:13:51.040Z,90.1
2017-12-05T06:14:51.310Z,90.1
2017-12-05T06:15:51.319Z,90.29
2017-12-05T06:16:51.080Z,90.58
2017-12-05T06:17:51.348Z,90.29
2017-12-05T06:18:51.360Z,90.2
2017-12-05T06:19:51.121Z,90.67
2017-12-05T06:20:51.385Z,90.58
2017-12-05T06:21:51.396Z,90.58
2017-12-05T06:22:51.409Z,90.43
2017-12-05T06:23:51.424Z,89.77
2017-12-05T06:24:51.184Z,89.96
2017-12-05T06:25:51.470Z,90.1
2017-12-05T06:26:51.462Z,90.39
2017-12-05T06:27:51.529Z,89.77
2017-12-05T06:28:51.492Z,89.39
2017-12-05T06:29:51.504Z,89.29
2017-12-05T06:30:51.269Z,89.34
2017-12-05T06:31:51.282Z,89.96
2017-12-05T06:32:51.549Z,90.2
2017-12-05T06:33:51.329Z,89.39
2017-12-05T06:34:51.573Z,90.2
2017-12-05T06:35:51.590Z,89.34
2017-12-05T06:36:51.601Z,89.91
2017-12-05T06:37:51.360Z,89.91
2017-12-05T06:38:51.628Z,90.1
2017-12-05T06:39:51.386Z,90.2
2017-12-05T06:40:51.655Z,90.1
2017-12-05T06:41:51.669Z,90.2
2017-12-05T06:42:51.477Z,89.91
2017-12-05T06:43:51.695Z,89.77
2017-12-05T06:44:51.707Z,90.01
2017-12-05T06:45:51.718Z,89.96
2017-12-05T06:46:51.735Z,89.72
2017-12-05T06:47:51.787Z,90.2
2017-12-05T06:48:51.761Z,90.01
2017-12-05T06:49:51.783Z,89.34
2017-12-05T06:50:51.791Z,89.44
2017-12-05T06:51:51.801Z,88.96
2017-12-05T06:52:51.851Z,89.53
2017-12-05T06:53:51.829Z,89.25
2017-12-05T06:54:51.841Z,88.87
2017-12-05T06:55:51.855Z,89.06
2017-12-05T06:56:51.868Z,88.96
2017-12-05T06:57:51.932Z,89.15
2017-12-05T06:58:51.895Z,89.53
2017-12-05T06:59:51.910Z,90.1
2017-12-05T07:00:51.924Z,90.1
2017-12-05T07:01:51.951Z,90.01
2017-12-05T07:02:51.952Z,89.15
2017-12-05T07:03:51.963Z,88.87
2017-12-05T07:04:51.978Z,89.15
2017-12-05T07:05:51.989Z,89.82
2017-12-05T07:06:52.004Z,88.96
2017-12-05T07:07:52.016Z,88.96
2017-12-05T07:08:51.778Z,88.87
2017-12-05T07:09:52.044Z,88.96
2017-12-05T07:10:52.059Z,89.15
2017-12-05T07:11:52.073Z,89.34
2017-12-05T07:12:52.135Z,89.34
2017-12-05T07:13:52.096Z,89.25
2017-12-05T07:14:52.113Z,89.25
2017-12-05T07:15:51.870Z,88.59
2017-12-05T07:16:52.137Z,88.68
2017-12-05T07:17:52.151Z,88.68
2017-12-05T07:18:52.186Z,88.78
2017-12-05T07:19:51.934Z,89.01
2017-12-05T07:20:52.194Z,88.49
2017-12-05T07:21:52.205Z,88.3
2017-12-05T07:22:51.964Z,88.3
2017-12-05T07:23:52.238Z,88.49
2017-12-05T07:24:52.242Z,88.49
2017-12-05T07:25:52.259Z,88.3
2017-12-05T07:26:52.018Z,88.59
2017-12-05T07:27:52.336Z,88.54
2017-12-05T07:28:52.297Z,88.49
2017-12-05T07:29:52.311Z,88.11
2017-12-05T07:30:52.072Z,88.3
2017-12-05T07:31:52.085Z,88.4
2017-12-05T07:32:52.356Z,88.4
2017-12-05T07:33:52.364Z,88.87
2017-12-05T07:34:52.432Z,88.68
2017-12-05T07:35:52.388Z,88.68
2017-12-05T07:36:52.152Z,88.49
2017-12-05T07:37:52.183Z,88.78
2017-12-05T07:38:52.430Z,88.68
2017-12-05T07:39:52.443Z,88.3
2017-12-05T07:40:52.204Z,88.3
2017-12-05T07:41:52.219Z,88.59
2017-12-05T07:42:52.532Z,88.49
2017-12-05T07:43:52.497Z,88.21
2017-12-05T07:44:52.267Z,88.63
2017-12-05T07:45:52.526Z,88.06
2017-12-05T07:46:52.536Z,87.92
2017-12-05T07:47:52.551Z,87.68
2017-12-05T07:48:52.565Z,87.77
2017-12-05T07:49:52.322Z,87.4
2017-12-05T07:50:52.589Z,87.54
2017-12-05T07:51:52.349Z,87.49
2017-12-05T07:52:52.617Z,87.21
2017-12-05T07:53:52.634Z,86.55
2017-12-05T07:54:52.645Z,86.55
2017-12-05T07:55:52.658Z,86.83
2017-12-05T07:56:52.671Z,87.4
2017-12-05T07:57:52.738Z,87.4
2017-12-05T07:58:52.701Z,86.83
2017-12-05T07:59:52.712Z,86.26
2017-12-05T08:00:52.727Z,86.64
2017-12-05T08:01:52.743Z,86.35
2017-12-05T08:02:52.805Z,86.64
2017-12-05T08:03:52.800Z,86.35
2017-12-05T08:04:52.780Z,86.45
2017-12-05T08:05:52.797Z,86.35
2017-12-05T08:06:52.810Z,85.88
2017-12-05T08:07:52.570Z,85.97
2017-12-05T08:08:52.836Z,85.88
2017-12-05T08:09:52.851Z,85.41
2017-12-05T08:10:52.871Z,85.69
2017-12-05T08:11:52.880Z,85.88
2017-12-05T08:12:52.955Z,85.88
2017-12-05T08:13:52.677Z,85.88
2017-12-05T08:14:52.927Z,86.16
2017-12-05T08:15:52.683Z,85.88
2017-12-05T08:16:52.959Z,85.88
2017-12-05T08:17:52.965Z,86.35
2017-12-05T08:18:52.725Z,86.35
2017-12-05T08:19:52.992Z,86.35
2017-12-05T08:20:52.755Z,85.97
2017-12-05T08:21:53.023Z,86.45
2017-12-05T08:22:53.036Z,86.16
2017-12-05T08:23:52.797Z,85.97
2017-12-05T08:24:52.810Z,85.78
2017-12-05T08:25:52.824Z,86.45
2017-12-05T08:26:53.095Z,86.64
2017-12-05T08:27:53.155Z,86.16
2017-12-05T08:28:53.119Z,85.69
2017-12-05T08:29:53.132Z,85.97
2017-12-05T08:30:53.158Z,85.88
2017-12-05T08:31:52.909Z,85.97
2017-12-05T08:32:53.175Z,85.6
2017-12-05T08:33:53.040Z,85.88
2017-12-05T08:34:53.205Z,85.6
2017-12-05T08:35:53.218Z,86.16
2017-12-05T08:36:53.230Z,85.36
2017-12-05T08:37:53.247Z,84.94
2017-12-05T08:38:53.008Z,85.69
2017-12-05T08:39:53.274Z,85.13
2017-12-05T08:40:53.035Z,85.31
2017-12-05T08:41:53.303Z,84.65
2017-12-05T08:42:53.367Z,85.69
2017-12-05T08:43:53.331Z,85.6
2017-12-05T08:44:53.345Z,84.59
2017-12-05T08:45:53.358Z,84.22
2017-12-05T08:46:53.375Z,84.22
2017-12-05T08:47:53.386Z,84.5
2017-12-05T08:48:53.401Z,84.41
2017-12-05T08:49:53.418Z,84.59
2017-12-05T08:50:53.437Z,84.46
2017-12-05T08:51:53.441Z,84.46
2017-12-05T08:52:53.458Z,84.69
2017-12-05T08:53:53.481Z,84.84
2017-12-05T08:54:53.235Z,84.22
2017-12-05T08:55:53.253Z,84.12
2017-12-05T08:56:53.512Z,84.78
2017-12-05T08:57:53.580Z,84.03
2017-12-05T08:58:53.290Z,84.03
2017-12-05T08:59:53.575Z,84.08
2017-12-05T09:00:53.574Z,84.46
2017-12-05T09:01:53.588Z,84.84
2017-12-05T09:02:53.600Z,84.65
2017-12-05T09:03:53.618Z,84.27
2017-12-05T09:04:53.628Z,84.65
2017-12-05T09:05:53.642Z,84.74
2017-12-05T09:06:53.662Z,84.36
2017-12-05T09:07:53.670Z,84.55
2017-12-05T09:08:53.686Z,84.88
2017-12-05T09:09:53.445Z,84.78
2017-12-05T09:10:53.712Z,84.88
2017-12-05T09:11:53.727Z,84.22
2017-12-05T09:12:53.797Z,84.12
2017-12-05T09:13:53.500Z,83.89
2017-12-05T09:14:53.771Z,84.08
2017-12-05T09:15:53.530Z,84.27
2017-12-05T09:16:53.798Z,84.12
2017-12-05T09:17:53.817Z,83.46
2017-12-05T09:18:53.831Z,84.22
2017-12-05T09:19:53.842Z,83.46
2017-12-05T09:20:53.865Z,83.46
2017-12-05T09:21:53.866Z,82.51
2017-12-05T09:22:53.883Z,81.94
2017-12-05T09:23:53.900Z,82.32
2017-12-05T09:24:53.914Z,81.56
2017-12-05T09:25:53.926Z,81.75
2017-12-05T09:26:53.945Z,81.75
2017-12-05T09:27:54.015Z,81.75
2017-12-05T09:28:53.970Z,82.13
2017-12-05T09:29:53.982Z,81.85
2017-12-05T09:30:54.001Z,81.79
2017-12-05T09:31:54.014Z,81.88
2017-12-05T09:32:54.028Z,81.79
2017-12-05T09:33:53.790Z,81.88
2017-12-05T09:34:53.807Z,81.04
2017-12-05T09:35:54.072Z,80.08
2017-12-05T09:36:54.087Z,79.61
2017-12-05T09:37:54.101Z,79.61
2017-12-05T09:38:53.865Z,80.84
2017-12-05T09:39:54.185Z,80.94
2017-12-05T09:40:53.897Z,80.75
2017-12-05T09:41:53.911Z,80.46
2017-12-05T09:42:54.176Z,80.27
2017-12-05T09:43:54.196Z,80.27
2017-12-05T09:44:54.359Z,80.18
2017-12-05T09:45:54.251Z,80.08
2017-12-05T09:46:54.241Z,79.33
2017-12-05T09:47:54.261Z,79.14
2017-12-05T09:48:54.017Z,79.14
2017-12-05T09:49:54.284Z,79.61
2017-12-05T09:50:54.309Z,79.99
2017-12-05T09:51:54.392Z,79.14
2017-12-05T09:52:54.333Z,79.14
2017-12-05T09:53:54.346Z,78.95
2017-12-05T09:54:54.366Z,79.23
2017-12-05T09:55:54.375Z,79.04
2017-12-05T09:56:54.391Z,79.14
2017-12-05T09:57:54.152Z,79.14
2017-12-05T09:58:54.421Z,79.33
2017-12-05T09:59:54.489Z,79.04
2017-12-05T10:00:54.449Z,78.95
2017-12-05T10:01:54.566Z,78.95
2017-12-05T10:02:54.483Z,78.66
2017-12-05T10:03:54.244Z,79.04
2017-12-05T10:04:54.516Z,79.23
2017-12-05T10:05:54.527Z,78.66
2017-12-05T10:06:54.543Z,79.23
2017-12-05T10:07:54.559Z,78.19
2017-12-05T10:08:54.571Z,78.38
2017-12-05T10:09:54.346Z,78.38
2017-12-05T10:10:54.353Z,78.75
2017-12-05T10:11:54.623Z,78.28
2017-12-05T10:12:54.633Z,78.09
2017-12-05T10:13:54.646Z,78.47
2017-12-05T10:14:54.467Z,78.75
2017-12-05T10:15:54.675Z,78.19
2017-12-05T10:16:54.438Z,77.71
2017-12-05T10:17:54.707Z,77.52
2017-12-05T10:18:54.719Z,78.19
2017-12-05T10:19:54.736Z,78.28
2017-12-05T10:20:54.757Z,78.09
2017-12-05T10:21:54.766Z,78.66
2017-12-05T10:22:54.785Z,77.43
2017-12-05T10:23:54.867Z,77.05
2017-12-05T10:24:54.557Z,77.62
2017-12-05T10:25:54.826Z,77.05
2017-12-05T10:26:54.846Z,77.81
2017-12-05T10:27:54.603Z,78
2017-12-05T10:28:54.620Z,77.52
2017-12-05T10:29:54.935Z,77.14
2017-12-05T10:30:54.651Z,77.52
2017-12-05T10:31:54.920Z,77.33
2017-12-05T10:32:54.934Z,76.95
2017-12-05T10:33:54.945Z,76.95
2017-12-05T10:34:54.709Z,77.24
2017-12-05T10:35:54.978Z,77.05
2017-12-05T10:36:54.991Z,76.86
2017-12-05T10:37:55.008Z,77.33
2017-12-05T10:38:55.032Z,76.95
2017-12-05T10:39:55.037Z,76.67
2017-12-05T10:40:55.055Z,75.91
2017-12-05T10:41:55.066Z,76.1
2017-12-05T10:42:55.123Z,75.67
2017-12-05T10:43:55.100Z,75.67
2017-12-05T10:44:54.911Z,75.43
2017-12-05T10:45:55.129Z,75.72
2017-12-05T10:46:54.892Z,75.81
2017-12-05T10:47:55.164Z,75.47
2017-12-05T10:48:55.184Z,75.28
2017-12-05T10:49:54.935Z,74.81
2017-12-05T10:50:55.205Z,74.81
2017-12-05T10:51:55.220Z,74.62
2017-12-05T10:52:55.234Z,74.52
2017-12-05T10:53:55.252Z,74.24
2017-12-05T10:54:55.365Z,73.14
2017-12-05T10:55:55.284Z,73.76
2017-12-05T10:56:55.295Z,73.19
2017-12-05T10:57:55.311Z,74.15
2017-12-05T10:58:55.328Z,73.86
2017-12-05T10:59:55.242Z,73.67
2017-12-05T11:00:55.115Z,74.33
2017-12-05T11:01:55.374Z,73.96
2017-12-05T11:02:55.391Z,74.52
2017-12-05T11:03:55.158Z,74.33
2017-12-05T11:04:55.168Z,73.86
2017-12-05T11:05:55.439Z,72.91
2017-12-05T11:06:55.453Z,71.77
2017-12-05T11:07:55.470Z,72.72
2017-12-05T11:08:55.285Z,72.81
2017-12-05T11:09:55.249Z,73.96
2017-12-05T11:10:55.536Z,73.29
2017-12-05T11:11:55.537Z,73.1
2017-12-05T11:12:55.550Z,72.53
2017-12-05T11:13:55.313Z,72.44
2017-12-05T11:14:55.691Z,72.81
2017-12-05T11:15:55.600Z,72.91
2017-12-05T11:16:55.617Z,73.38
2017-12-05T11:17:55.634Z,73.19
2017-12-05T11:18:55.396Z,73.86
2017-12-05T11:19:55.765Z,73.38
2017-12-05T11:20:55.433Z,72.81
2017-12-05T11:21:55.694Z,73.86
2017-12-05T11:22:55.721Z,73.04
2017-12-05T11:23:55.475Z,71.62
2017-12-05T11:24:55.490Z,70.95
2017-12-05T11:25:55.764Z,71.81
2017-12-05T11:26:55.777Z,71.86
2017-12-05T11:27:55.799Z,71.58
2017-12-05T11:28:55.811Z,71.81
2017-12-05T11:29:55.879Z,71.71
2017-12-05T11:30:55.594Z,70.76
2017-12-05T11:31:55.860Z,69.91
2017-12-05T11:32:55.887Z,71.14
2017-12-05T11:33:55.891Z,70.95
2017-12-05T11:34:55.655Z,70.48
2017-12-05T11:35:55.923Z,70.57
2017-12-05T11:36:55.940Z,70.92
2017-12-05T11:37:55.704Z,71.86
2017-12-05T11:38:55.976Z,71.23
2017-12-05T11:39:55.987Z,70.86
2017-12-05T11:40:55.752Z,70.48
2017-12-05T11:41:56.021Z,69.62
2017-12-05T11:42:56.038Z,70.38
2017-12-05T11:43:55.800Z,69.71
2017-12-05T11:44:56.119Z,70.44
2017-12-05T11:45:56.087Z,71.3
2017-12-05T11:46:56.100Z,71.01
2017-12-05T11:47:55.869Z,71.01
2017-12-05T11:48:55.883Z,71.01
2017-12-05T11:49:56.153Z,71.39
2017-12-05T11:50:56.169Z,71.2
2017-12-05T11:51:56.182Z,70.92
2017-12-05T11:52:56.200Z,70.73
2017-12-05T11:53:56.217Z,71.58
2017-12-05T11:54:56.239Z,71.3
2017-12-05T11:55:56.250Z,71.01
2017-12-05T11:56:56.264Z,71.48
2017-12-05T11:57:56.280Z,71.39
2017-12-05T11:58:56.303Z,71.01
2017-12-05T11:59:56.362Z,71.01
2017-12-05T12:00:56.326Z,70.76
2017-12-05T12:01:56.089Z,70.1
2017-12-05T12:02:56.359Z,70.29
2017-12-05T12:03:56.374Z,69.71
2017-12-05T12:04:56.394Z,69.87
2017-12-05T12:05:56.154Z,71.04
2017-12-05T12:06:56.426Z,70.86
2017-12-05T12:07:56.451Z,69.81
2017-12-05T12:08:56.454Z,69.05
2017-12-05T12:09:56.218Z,68.39
2017-12-05T12:10:56.491Z,69.24
2017-12-05T12:11:56.253Z,68.96
2017-12-05T12:12:56.267Z,68.19
2017-12-05T12:13:56.284Z,68.58
2017-12-05T12:14:56.602Z,67.91
2017-12-05T12:15:56.575Z,67.76
2017-12-05T12:16:56.592Z,67.47
2017-12-05T12:17:56.350Z,67.38
2017-12-05T12:18:56.624Z,67.76
2017-12-05T12:19:56.636Z,66.8
2017-12-05T12:20:56.449Z,66.61
2017-12-05T12:21:56.421Z,66.46
2017-12-05T12:22:56.690Z,65.47
2017-12-05T12:23:56.708Z,66.14
2017-12-05T12:24:56.472Z,66.52
2017-12-05T12:25:56.741Z,66.87
2017-12-05T12:26:56.765Z,66.87
2017-12-05T12:27:56.773Z,67.15
2017-12-05T12:28:56.539Z,67.34
2017-12-05T12:29:57.014Z,68.01
2017-12-05T12:30:56.823Z,68.29
2017-12-05T12:31:56.842Z,67.44
2017-12-05T12:32:56.858Z,67.09
2017-12-05T12:33:56.877Z,66.71
2017-12-05T12:34:56.690Z,66.77
2017-12-05T12:35:56.910Z,67.44
2017-12-05T12:36:56.926Z,67.34
2017-12-05T12:37:56.944Z,67.53
2017-12-05T12:38:56.964Z,66.58
2017-12-05T12:39:56.726Z,66.96
2017-12-05T12:40:56.994Z,67.28
2017-12-05T12:41:57.009Z,65.95
2017-12-05T12:42:57.026Z,65.67
2017-12-05T12:43:57.065Z,66.58
2017-12-05T12:44:57.112Z,66.67
2017-12-05T12:45:57.076Z,66.58
2017-12-05T12:46:57.092Z,66.42
2017-12-05T12:47:57.120Z,65.76
2017-12-05T12:48:57.129Z,65.95
2017-12-05T12:49:57.153Z,65.76
2017-12-05T12:50:57.165Z,66.42
2017-12-05T12:51:56.928Z,66.52
2017-12-05T12:52:57.194Z,65.95
2017-12-05T12:53:57.229Z,65.95
2017-12-05T12:54:57.384Z,65.76